Elwyn, Pennsylvania
Current Conditions -  °F | °C
As of 2:54 AM on Sunday 26 Oct 2014 (Local Time) from KPHL Reporting Station
Overcast Overcast  
Wind Chill: 60°   Ceiling: 8500
Heat Index: 60°   Visibility: 10mi
Dew Point: 48°   Wind: 6mph
Humidity: 64%   Direction: 230°SW
Pressure: 29.61"   Gusts: NA
Location:  39.9207°N, 75.4181°W
Report Text: KPHL 260654Z 23005KT 10SM FEW055 OVC085 16/09 A2961 RMK AO2 SLP027 T01560089
Loading
Personal Weather Stations






























Interactive Weather Map
Tropical Storm Tracking
New forecast layout! Learn more

10-Day Weather Forecast

Advertisements
Track Severe Weather on mobile